Date,TemperatureHighF,TemperatureAvgF,TemperatureLowF,DewpointHighF,DewpointAvgF,DewpointLowF,HumidityHigh,HumidityAvg,HumidityLow,PressureMaxIn,PressureMinIn,WindSpeedMaxMPH,WindSpeedAvgMPH,GustSpeedMaxMPH,PrecipitationSumIn
2014-1-1,10,5,-3,8,2,-6,91,80,66,30.29,30.04,11,2,13,0.00
2014-1-2,-3,-9,-14,0,-6,-13,92,88,84,30.27,29.89,8,2,10,0.00
2014-1-3,-2,-13,-24,-6,-11,-23,93,86,66,30.26,29.87,8,1,11,0.00
2014-1-4,30,6,-25,18,2,-23,93,75,37,30.25,30.00,10,1,13,0.06
2014-1-5,47,28,16,45,22,8,96,76,49,30.16,29.70,27,2,31,0.38
2014-1-6,51,33,7,48,30,4,97,89,76,29.69,29.33,29,6,37,0.58
2014-1-7,7,0,-2,4,-3,-6,89,79,70,29.96,29.51,20,4,34,0.00
2014-1-8,13,7,1,8,3,0,89,79,64,30.28,29.96,17,3,17,0.00
2014-1-9,19,7,-10,11,6,-6,92,86,60,30.50,30.27,10,1,15,0.00
2014-1-10,31,16,-10,29,16,-6,94,92,84,30.40,30.12,6,0,7,0.00
2014-1-11,51,42,20,50,41,18,97,96,90,30.13,29.27,19,2,24,0.74
2014-1-12,39,31,29,38,29,24,96,91,82,29.94,29.35,15,4,24,0.02
2014-1-13,48,35,18,36,25,16,94,71,41,29.98,29.77,18,4,22,0.04
2014-1-14,40,37,30,39,36,26,96,95,84,29.82,29.72,12,2,16,0.18
2014-1-15,43,30,20,35,27,18,95,89,71,29.94,29.80,14,1,19,0.00
2014-1-16,27,22,13,26,21,11,94,92,86,29.95,29.87,4,0,6,0.03
2014-1-17,29,21,7,26,18,8,94,88,78,29.88,29.80,12,2,14,0.00
2014-1-18,38,21,5,26,18,8,94,85,48,29.86,29.68,5,1,8,0.03
2014-1-19,25,21,19,23,18,14,93,87,72,29.71,29.39,20,3,24,0.00
2014-1-20,25,11,-12,23,10,-6,93,90,83,29.90,29.42,13,2,16,0.01
2014-1-21,4,-12,-25,0,-11,-23,93,86,61,30.00,29.89,6,1,7,0.00
2014-1-22,6,-14,-30,0,-14,-23,94,85,61,29.95,29.77,6,1,10,0.00
2014-1-23,6,-10,-26,0,-10,-23,94,81,55,30.11,29.89,11,1,13,0.00
2014-1-24,9,-3,-23,0,-6,-23,93,74,52,30.14,29.68,22,3,26,0.00
2014-1-25,17,12,7,14,7,0,93,75,58,29.68,29.24,21,7,27,0.00
2014-1-26,12,2,-11,8,-3,-13,88,70,54,29.65,29.34,16,3,23,0.00
2014-1-27,28,13,-3,26,7,-6,94,72,38,29.89,29.29,27,5,29,0.00
2014-1-28,9,2,-4,0,-6,-13,89,67,53,30.12,29.89,16,3,17,0.00
2014-1-29,11,4,-5,8,-3,-13,83,66,46,30.07,29.83,16,3,23,0.00
2014-1-30,28,16,3,11,6,0,92,61,36,30.23,29.87,21,3,29,0.00
2014-1-31,28,25,20,23,16,4,86,67,39,30.14,29.85,17,4,25,0.00
2014-2-1,35,28,17,32,24,16,95,84,64,30.23,29.87,21,4,29,0.00
2014-2-2,35,30,22,33,29,21,95,94,91,30.10,29.83,14,2,15,0.07
2014-2-3,26,20,14,21,17,11,93,88,70,30.25,30.08,7,1,8,0.00
2014-2-4,24,15,7,14,11,8,93,81,56,30.38,30.22,9,1,11,0.00
2014-2-5,18,13,5,16,12,8,93,93,89,30.22,29.75,8,1,13,0.00
2014-2-6,15,6,-8,11,5,-6,92,86,68,30.18,30.00,9,1,14,0.01
2014-2-7,17,11,6,11,7,4,92,82,67,30.09,30.03,13,2,19,0.00
2014-2-8,18,10,6,11,7,4,92,81,62,30.16,30.07,16,2,18,0.00
2014-2-9,20,12,1,14,9,4,93,84,55,30.08,29.87,7,1,8,0.00
2014-2-10,16,8,-3,11,7,0,92,88,68,30.11,29.88,12,1,12,0.00
2014-2-11,13,2,-11,8,2,-6,92,86,64,30.37,30.10,9,1,13,0.00
2014-2-12,29,-1,-28,8,-6,-23,94,75,23,30.43,30.16,9,1,12,0.07
2014-2-13,26,14,-2,21,10,-6,93,82,54,30.17,29.34,12,2,15,0.00
2014-2-14,22,19,16,21,17,14,93,93,91,29.68,29.15,12,2,20,0.00
2014-2-15,30,22,14,26,20,11,93,88,68,29.78,29.68,9,1,12,0.04
2014-2-16,17,6,-11,11,3,-6,93,80,48,30.03,29.73,13,2,19,0.00
2014-2-17,20,-2,-21,8,-4,-13,93,78,34,30.29,30.02,12,1,13,0.00
2014-2-18,27,16,-14,23,13,-13,93,85,45,30.15,29.89,28,4,33,0.01
2014-2-19,36,26,11,33,23,11,95,88,52,29.98,29.66,21,2,27,0.01
2014-2-20,41,30,13,32,26,11,95,84,54,30.14,29.91,10,1,16,0.12
2014-2-21,44,34,27,43,33,26,96,95,90,30.00,29.62,17,2,20,0.72
2014-2-22,41,33,28,29,20,11,94,61,31,29.87,29.74,24,4,26,0.07
2014-2-23,39,31,22,23,16,11,73,53,32,29.90,29.79,16,4,21,0.00
2014-2-24,22,15,9,18,9,4,88,73,50,29.89,29.74,15,3,28,0.00
2014-2-25,13,8,0,8,4,0,92,80,67,29.89,29.79,11,2,17,0.00
2014-2-26,10,4,-4,8,-1,-6,92,72,40,29.79,29.64,18,2,22,0.00
2014-2-27,14,4,-3,11,1,-13,91,78,56,29.84,29.44,19,3,22,0.00
2014-2-28,12,-2,-16,0,-7,-13,93,70,32,30.27,29.84,12,2,13,0.00
2014-3-1,31,12,-16,18,2,-13,93,61,30,30.25,29.96,14,2,21,0.00
2014-3-2,24,12,-9,21,9,-6,93,82,61,30.07,29.97,9,2,16,0.01
2014-3-3,12,-1,-16,0,-6,-13,93,73,40,30.21,29.97,11,2,14,0.00
2014-3-4,19,0,-24,8,-3,-23,93,77,28,30.21,30.15,9,1,11,0.01
2014-3-5,16,6,-17,11,5,-13,93,86,69,30.47,30.15,12,2,12,0.00
2014-3-6,30,0,-28,4,-6,-23,94,69,30,30.54,30.32,6,1,11,0.00
2014-3-7,43,15,-18,18,3,-13,93,64,13,30.32,29.87,10,1,15,0.00
2014-3-8,35,21,3,28,18,4,93,86,66,29.91,29.78,6,1,9,0.00
2014-3-9,27,12,-8,16,4,-6,93,69,30,29.97,29.78,14,2,15,0.00
2014-3-10,36,27,17,31,24,16,95,89,72,29.78,29.47,14,2,15,0.08
2014-3-11,44,34,21,35,30,18,95,84,54,29.72,29.47,14,2,21,0.08
2014-3-12,28,24,21,26,23,18,94,93,93,29.71,29.66,9,1,10,0.00
2014-3-13,10,2,-13,4,0,-13,93,81,61,29.90,29.47,15,2,18,0.00
2014-3-14,36,11,-22,29,9,-13,93,80,60,29.95,29.64,17,2,25,0.04
2014-3-15,39,33,19,35,29,18,95,83,58,29.92,29.58,17,4,26,0.28
2014-3-16,19,6,-16,18,2,-13,93,78,54,30.15,29.92,14,2,17,0.01
2014-3-17,23,-3,-30,4,-9,-23,94,70,33,30.12,30.03,10,1,12,0.01
2014-3-18,40,11,-19,8,-1,-13,93,60,22,30.23,30.11,9,1,15,0.00
2014-3-19,36,22,1,32,14,0,95,69,23,30.21,29.80,26,6,28,0.00
2014-3-20,37,32,27,36,29,23,95,86,70,29.80,29.61,18,4,26,0.04
2014-3-21,34,25,10,24,20,8,93,79,46,30.00,29.68,13,2,17,0.03
2014-3-22,34,22,2,31,20,4,94,86,58,30.00,29.57,22,3,26,0.03
2014-3-23,28,14,-10,24,7,-6,94,72,35,30.09,29.87,12,3,17,0.01
2014-3-24,23,3,-24,8,-4,-23,93,67,35,30.11,30.00,16,2,18,0.00
2014-3-25,29,13,-8,14,5,-6,92,68,35,30.03,27.77,14,2,21,0.00
2014-3-26,21,11,0,14,5,0,93,70,38,30.09,29.84,17,2,21,0.01
2014-3-27,37,18,-11,24,4,-6,93,57,25,30.23,30.05,12,2,17,0.00
2014-3-28,44,36,29,43,34,23,96,92,66,30.08,29.82,15,3,19,0.22
2014-3-29,39,34,30,38,32,26,96,89,75,30.27,30.00,12,2,13,0.01
2014-3-30,34,30,25,33,29,24,95,94,91,30.00,29.83,11,3,17,0.09
2014-3-31,34,28,21,31,26,18,95,90,79,30.19,29.94,16,2,16,0.13
2014-4-1,50,33,17,33,25,16,94,74,48,30.18,29.92,13,2,13,0.81
2014-4-2,51,41,27,33,29,23,94,63,36,30.08,29.92,18,3,21,0.11
2014-4-3,44,32,24,26,23,21,88,70,42,30.16,30.07,10,2,15,0.00
2014-4-4,50,34,15,37,26,14,94,75,39,30.12,29.68,22,4,34,0.21
2014-4-5,39,33,27,37,29,23,95,83,66,29.97,29.65,27,5,30,0.03
2014-4-6,49,33,23,26,23,21,93,67,35,30.18,29.97,12,2,20,0.00
2014-4-7,55,37,18,37,23,16,94,64,27,30.18,29.74,19,3,26,0.04
2014-4-8,52,42,34,47,40,32,97,90,72,29.76,29.34,21,4,26,0.30
2014-4-9,40,33,20,35,23,8,95,71,27,29.93,29.62,16,2,19,0.01
2014-4-10,59,41,16,35,26,14,94,61,33,30.01,29.82,24,5,33,0.00
2014-4-11,55,44,24,47,34,23,97,71,30,30.06,29.87,22,2,26,0.15
2014-4-12,56,39,21,36,28,18,95,68,34,30.25,30.04,16,1,21,0.00
2014-4-13,69,48,34,52,42,29,97,82,50,30.23,29.92,14,2,17,0.28
2014-4-14,76,57,34,57,46,33,97,72,39,29.97,29.77,26,5,33,0.21
2014-4-15,62,45,20,57,44,18,98,94,78,29.94,29.55,23,3,29,0.71
2014-4-16,29,19,12,18,14,11,93,81,52,30.57,29.91,16,2,16,0.25
2014-4-17,47,29,8,24,15,8,94,62,24,30.70,30.51,11,2,16,0.00
2014-4-18,54,39,22,37,24,18,94,60,26,30.51,30.21,12,2,14,0.00
2014-4-19,46,36,22,40,31,21,96,81,44,30.46,30.18,11,2,14,0.01
2014-4-20,61,39,17,31,20,14,95,57,15,30.51,30.25,9,2,13,0.00
2014-4-21,70,50,31,41,33,26,91,59,24,30.25,29.88,14,1,17,0.00
2014-4-22,61,50,40,53,44,37,97,84,43,29.88,29.57,15,2,17,0.03
2014-4-23,45,39,35,44,36,23,97,87,59,29.85,29.58,13,2,21,0.10
2014-4-24,48,36,25,24,20,16,80,52,33,30.06,29.84,15,3,17,0.00
2014-4-25,58,39,17,26,20,11,93,53,18,30.07,29.80,12,2,16,0.00
2014-4-26,44,39,35,41,37,26,96,93,48,29.89,29.71,7,1,9,0.13
2014-4-27,42,36,32,39,35,31,96,95,88,30.18,29.89,6,1,9,0.13
2014-4-28,52,41,28,39,34,26,95,77,43,30.24,30.13,16,2,19,0.01
2014-4-29,54,45,38,40,36,29,96,74,40,30.39,30.22,18,3,26,0.32
2014-4-30,49,43,37,47,42,35,97,93,80,30.40,30.00,31,3,34,0.50
2014-5-1,62,52,37,54,48,36,97,88,70,30.00,29.79,29,4,37,0.18
2014-5-2,53,43,34,45,38,33,97,83,54,29.87,29.72,16,2,22,0.03
2014-5-3,56,46,39,47,42,38,97,89,59,29.89,29.72,12,2,23,0.11
2014-5-4,43,40,38,42,39,37,96,95,86,29.80,29.64,11,2,16,0.63
2014-5-5,43,39,34,42,38,33,96,96,94,29.99,29.80,10,1,12,0.09
2014-5-6,54,40,27,39,30,26,96,73,39,30.15,29.92,14,2,20,0.00
2014-5-7,63,41,20,36,27,18,95,65,20,30.33,30.13,11,2,13,0.00
2014-5-8,68,48,25,41,29,24,95,56,21,30.28,30.20,13,2,16,0.00
2014-5-9,72,56,43,56,50,41,97,81,54,30.24,30.02,18,3,24,0.06
2014-5-10,72,62,52,60,50,32,98,68,32,30.04,29.91,26,3,27,0.29
2014-5-11,68,54,40,42,38,36,95,59,32,30.19,29.92,16,2,21,0.00
2014-5-12,76,56,32,50,40,31,96,63,28,30.24,30.06,12,2,16,0.00
2014-5-13,71,58,49,53,46,39,89,67,49,30.29,30.21,7,1,11,0.00
2014-5-14,80,63,50,68,57,47,99,83,50,30.31,30.18,16,1,16,0.47
2014-5-15,75,66,54,63,60,53,98,80,62,30.28,30.23,26,6,31,0.00
2014-5-16,74,63,46,61,58,45,97,83,63,30.25,29.94,26,8,44,0.67
2014-5-17,59,47,31,45,38,29,97,74,39,30.19,29.92,11,2,14,0.65
2014-5-18,58,42,24,36,30,24,95,68,36,30.30,30.19,12,2,19,0.00
2014-5-19,63,45,25,39,32,24,96,66,29,30.27,30.18,12,2,16,0.00
2014-5-20,69,50,27,45,34,26,96,63,25,30.25,30.11,16,2,19,0.00
2014-5-21,72,54,30,45,37,29,96,60,27,30.13,29.99,8,1,11,0.01
2014-5-22,65,53,44,56,49,42,97,90,64,29.99,29.93,11,1,14,0.41
2014-5-23,63,52,42,56,50,41,97,93,73,30.09,29.94,10,1,13,0.09
2014-5-24,64,56,49,57,52,46,97,88,61,30.20,30.08,7,1,12,0.12
2014-5-25,76,58,37,52,44,36,97,67,25,30.23,30.10,10,1,14,0.00
2014-5-26,73,62,51,58,52,45,97,72,41,30.10,29.99,14,2,19,0.06
2014-5-27,77,62,45,66,56,44,98,84,49,30.00,29.93,11,1,13,0.04
2014-5-28,57,52,50,54,50,46,97,94,82,30.29,29.96,16,2,19,0.03
2014-5-29,68,54,32,50,42,31,97,68,39,30.31,30.21,6,1,10,0.00
2014-5-30,67,52,37,54,47,36,97,85,48,30.25,30.17,17,1,19,0.18
2014-5-31,63,49,32,50,43,31,97,82,55,30.41,30.24,12,2,15,0.00
2014-6-1,78,56,31,51,43,29,97,68,29,30.46,30.27,12,1,12,0.00
2014-6-2,84,64,40,58,50,39,97,68,30,30.29,30.12,16,2,18,0.00
2014-6-3,79,65,56,68,61,55,99,90,60,30.12,29.93,12,1,16,0.38
2014-6-4,69,60,44,61,50,42,98,74,44,30.02,29.87,13,2,16,0.01
2014-6-5,68,53,35,54,46,33,97,81,48,29.93,29.80,9,1,14,0.01
2014-6-6,65,56,51,55,52,50,97,88,64,30.10,29.91,11,2,14,0.01
2014-6-7,77,62,46,57,50,45,97,72,37,30.18,30.09,9,1,16,0.00
2014-6-8,81,62,38,61,50,37,98,71,27,30.14,27.94,11,1,12,0.00
2014-6-9,77,66,55,59,55,50,98,73,41,30.17,30.05,11,2,11,0.00
2014-6-10,73,62,53,58,55,50,98,78,47,30.22,30.09,14,2,16,0.00
2014-6-11,68,56,47,57,50,37,97,85,35,30.28,30.17,16,2,19,0.73
2014-6-12,64,60,55,62,58,53,98,94,82,30.17,30.07,19,2,21,0.41
2014-6-13,69,64,61,67,63,60,99,97,86,30.08,29.91,20,1,23,0.36
2014-6-14,61,56,52,60,53,47,98,90,68,30.15,29.93,13,2,14,0.15
2014-6-15,70,57,45,54,51,44,97,83,46,30.28,30.14,9,2,13,0.01
2014-6-16,79,61,38,57,48,37,97,69,29,30.32,30.18,8,1,10,0.00
2014-6-17,81,68,50,65,55,49,98,69,35,30.25,29.87,12,2,18,0.11
2014-6-18,73,65,61,64,61,57,98,89,60,30.17,29.86,12,2,16,0.15
2014-6-19,72,63,44,61,48,35,98,64,27,30.23,30.13,12,2,14,0.01
2014-6-20,66,52,39,50,41,36,97,72,38,30.18,30.10,12,2,14,0.00
2014-6-21,67,52,35,50,42,33,97,73,40,30.14,30.07,12,2,16,0.00
2014-6-22,74,58,39,55,47,38,97,72,38,30.18,30.07,9,2,12,0.00
2014-6-23,79,62,40,57,48,38,97,69,29,30.28,30.16,10,2,16,0.00
2014-6-24,75,67,59,67,62,57,99,87,69,30.21,30.06,14,2,21,0.15
2014-6-25,68,66,63,67,65,62,99,98,97,30.09,30.05,7,1,11,1.99
2014-6-26,73,65,49,64,58,48,98,83,49,30.19,30.03,11,2,12,0.01
2014-6-27,78,61,41,58,49,40,97,71,36,30.36,30.19,7,1,11,0.00
2014-6-28,81,63,41,60,51,40,98,72,35,30.47,30.34,5,1,7,0.00
2014-6-29,84,67,48,63,56,47,98,73,35,30.39,30.19,9,1,12,0.00
2014-6-30,84,70,59,68,64,58,99,83,50,30.20,30.06,10,1,12,0.00
2014-7-1,87,73,58,72,64,57,99,78,49,30.07,29.94,19,3,27,0.00
2014-7-2,82,74,66,70,65,58,99,74,48,30.10,29.96,11,2,17,0.05
2014-7-3,81,67,57,69,62,56,99,88,53,30.18,30.05,10,1,12,0.67
2014-7-4,67,60,47,62,57,46,98,89,63,30.20,30.09,10,1,14,0.06
2014-7-5,75,60,42,54,48,41,97,69,40,30.25,30.13,17,2,22,0.00
2014-7-6,76,65,51,56,52,47,97,66,38,30.16,29.98,12,2,19,0.00
2014-7-7,72,63,50,67,60,49,98,89,66,29.98,29.82,14,2,17,0.04
2014-7-8,82,70,55,69,63,54,99,79,55,29.95,29.72,14,3,21,0.33
2014-7-9,72,66,54,61,56,53,97,74,55,30.09,29.77,16,3,24,0.00
2014-7-10,71,58,44,54,49,44,97,75,42,30.31,30.09,11,2,14,0.00
2014-7-11,76,58,38,56,47,37,97,73,36,30.42,30.30,7,1,11,0.00
2014-7-12,82,63,41,66,54,40,99,76,36,30.35,30.21,10,1,12,0.03
2014-7-13,75,67,59,68,63,58,99,88,71,30.21,29.97,17,3,19,0.01
2014-7-14,80,67,58,69,61,56,99,85,48,30.09,30.01,8,1,11,0.17
2014-7-15,74,66,56,69,62,55,99,89,69,30.01,29.90,16,1,17,0.04
2014-7-16,72,62,49,64,54,48,98,78,46,30.03,29.93,17,2,17,0.00
2014-7-17,70,58,47,57,52,46,97,81,47,30.23,30.02,9,1,12,0.00
2014-7-18,75,58,39,57,48,38,97,75,37,30.39,30.23,9,1,11,0.00
2014-7-19,76,60,43,60,52,42,97,77,44,30.43,30.33,9,1,10,0.00
2014-7-20,79,63,45,60,53,44,98,74,38,30.36,30.29,7,1,9,0.00
2014-7-21,79,65,50,66,57,49,98,79,47,30.37,30.27,5,1,12,0.00
2014-7-22,83,68,51,65,58,50,98,76,44,30.33,30.10,9,1,12,0.00
2014-7-23,78,68,59,71,65,58,99,92,73,30.11,29.98,12,2,16,0.42
2014-7-24,69,59,46,59,52,45,98,81,46,30.11,30.02,9,1,11,0.00
2014-7-25,74,58,40,57,49,39,97,77,47,30.17,30.08,11,1,14,0.00
2014-7-26,73,60,45,59,53,44,98,81,50,30.10,30.00,10,1,15,0.00
2014-7-27,75,64,56,66,60,55,98,89,63,30.00,29.82,15,1,15,0.46
2014-7-28,61,57,52,60,56,51,98,97,97,29.84,29.70,8,1,13,1.22
2014-7-29,67,56,44,56,51,43,97,85,54,30.10,29.83,9,1,12,0.00
2014-7-30,72,55,38,56,47,37,97,79,42,30.17,30.08,12,1,13,0.00
2014-7-31,69,57,45,59,52,44,98,86,56,30.24,30.12,17,1,20,0.04
2014-8-1,79,61,43,63,53,42,98,78,43,30.35,30.23,14,1,14,0.00
2014-8-2,77,61,50,69,58,49,99,93,60,30.35,30.25,12,1,19,1.10
2014-8-3,78,63,52,66,60,51,99,89,55,30.30,30.21,7,1,8,0.02
2014-8-4,78,66,56,66,60,55,98,84,49,30.25,30.18,8,1,9,0.04
2014-8-5,77,64,52,64,58,51,98,83,50,30.20,30.11,11,1,12,0.01
2014-8-6,73,61,51,60,54,47,98,80,42,30.11,30.05,9,1,10,0.11
2014-8-7,66,57,50,60,54,50,98,92,70,30.16,27.97,15,1,15,0.50
2014-8-8,73,58,42,60,52,41,98,83,49,30.26,30.15,10,1,12,0.00
2014-8-9,78,61,46,59,52,44,98,77,39,30.33,30.22,9,1,12,0.00
2014-8-10,81,61,42,63,53,41,98,78,37,30.36,30.27,7,1,8,0.00
2014-8-11,81,64,46,63,55,45,98,79,43,30.33,30.21,6,1,9,0.00
2014-8-12,71,62,49,59,54,48,98,76,52,30.22,30.05,21,3,27,0.00
2014-8-13,68,63,53,64,60,52,98,90,68,30.06,29.85,17,2,22,1.16
2014-8-14,58,53,49,54,50,47,97,88,71,29.97,29.85,11,2,13,0.03
2014-8-15,59,53,49,53,50,47,97,90,73,30.02,29.93,12,1,13,0.03
2014-8-16,64,56,50,57,53,49,98,89,70,30.06,29.95,14,1,16,0.06
2014-8-17,65,58,52,57,55,51,97,91,71,30.05,29.92,8,1,13,0.03
2014-8-18,69,57,42,57,49,41,97,79,44,30.08,30.00,9,2,11,0.01
2014-8-19,74,54,34,57,46,33,97,78,40,30.11,30.00,7,1,9,0.00
2014-8-20,79,61,42,65,55,41,98,83,55,30.17,30.06,6,1,9,0.00
2014-8-21,74,65,60,67,62,59,99,92,69,30.20,30.15,9,1,11,0.36
2014-8-22,70,62,57,62,59,56,98,91,75,30.24,30.15,7,1,9,0.00
2014-8-23,73,62,48,60,56,47,98,84,53,30.32,30.23,8,1,12,0.00
2014-8-24,77,59,43,59,52,42,98,81,46,30.38,30.28,9,1,12,0.00
2014-8-25,81,61,42,63,52,41,98,78,39,30.41,30.29,7,1,7,0.00
2014-8-26,80,63,45,62,54,44,98,76,42,30.33,30.15,13,2,16,0.00
2014-8-27,79,69,57,66,61,56,98,78,51,30.16,30.11,11,1,13,0.00
2014-8-28,65,58,52,58,52,47,97,81,58,30.21,30.04,11,1,15,0.00
2014-8-29,72,59,45,60,53,44,98,82,52,30.36,30.21,6,1,7,0.00
2014-8-30,78,63,45,62,54,44,98,76,47,30.31,30.18,17,3,18,0.00
2014-8-31,73,69,64,67,65,61,98,89,80,30.18,30.10,16,2,18,0.01
2014-9-1,82,69,58,67,62,57,99,82,47,30.17,30.07,9,1,12,0.00
2014-9-2,83,68,57,69,62,56,99,85,48,30.07,29.91,10,1,14,0.19
2014-9-3,74,63,48,61,56,47,98,82,46,30.24,29.98,9,1,16,0.00
2014-9-4,80,61,42,63,52,41,98,79,40,30.31,30.23,13,1,18,0.00
2014-9-5,84,76,55,66,63,54,98,67,46,30.28,30.09,11,2,16,0.00
2014-9-6,75,66,57,66,62,56,98,89,70,30.12,29.99,10,2,16,0.26
2014-9-7,69,56,44,56,49,43,97,82,43,30.35,30.11,9,1,11,0.01
2014-9-8,74,55,37,55,46,36,97,78,41,30.50,30.35,10,1,13,0.00
2014-9-9,72,55,37,56,45,36,97,76,33,30.43,30.25,9,1,12,0.00
2014-9-10,74,61,50,60,55,49,98,83,54,30.27,30.03,9,1,15,0.00
2014-9-11,71,61,48,66,58,47,98,89,73,30.14,29.83,19,4,24,0.12
2014-9-12,50,46,35,47,43,33,97,89,76,30.35,30.14,7,1,11,0.00
2014-9-13,52,44,32,51,43,31,97,96,91,30.32,30.12,16,1,16,0.22
2014-9-14,57,44,36,46,40,35,96,86,58,30.36,30.27,9,2,11,0.01
2014-9-15,61,46,32,50,40,31,97,82,46,30.30,30.13,7,1,13,0.00
2014-9-16,62,50,40,53,46,38,97,89,49,30.14,30.07,6,1,12,0.15
2014-9-17,64,47,30,50,40,29,97,81,47,30.14,30.04,9,1,11,0.00
2014-9-18,52,45,29,49,43,28,97,91,67,30.25,30.03,6,1,12,0.01
2014-9-19,58,39,22,40,30,21,95,74,36,30.45,30.25,12,2,18,0.01
2014-9-20,64,57,46,57,52,40,91,84,71,30.31,30.08,14,5,25,0.00
2014-9-21,74,64,58,64,58,56,98,81,60,30.08,29.72,18,5,24,0.38
2014-9-22,59,47,41,58,45,39,98,95,85,30.19,29.70,9,2,17,0.09
2014-9-23,54,48,38,53,46,37,97,96,88,30.52,30.20,6,1,7,0.03
2014-9-24,71,53,41,59,48,40,97,86,49,30.69,30.52,5,1,8,0.01
2014-9-25,69,50,36,57,46,35,97,87,52,30.59,30.38,6,1,9,0.00
2014-9-26,75,54,38,57,48,37,97,83,44,30.43,30.36,7,1,8,0.00
2014-9-27,79,56,38,61,50,37,98,83,46,30.43,30.33,9,1,10,0.00
2014-9-28,77,57,43,60,51,42,98,83,44,30.33,30.16,8,1,11,0.00
2014-9-29,78,57,42,58,49,41,97,81,31,30.16,30.05,6,1,10,0.00
2014-9-30,70,55,41,59,51,40,98,87,59,30.15,30.05,5,1,11,0.00
2014-10-1,64,53,46,56,51,45,97,92,73,30.25,30.14,8,1,11,0.00
2014-10-2,72,55,45,56,50,44,97,86,53,30.31,30.20,7,1,10,0.00
2014-10-3,72,57,40,56,45,39,96,68,38,30.20,29.88,19,3,23,0.00
2014-10-4,60,54,43,56,51,42,97,91,68,29.88,29.64,9,1,14,0.43
2014-10-5,54,43,31,42,37,29,96,82,49,29.95,29.71,12,2,14,0.00
2014-10-6,59,45,25,47,36,24,96,73,51,30.09,29.95,20,5,24,0.01
2014-10-7,62,55,42,53,48,41,97,79,57,30.07,29.96,21,4,24,0.07
2014-10-8,59,52,44,54,47,37,97,84,64,29.96,29.70,16,3,19,0.47
2014-10-9,49,44,38,41,37,31,88,76,55,30.05,29.89,19,3,21,0.00
2014-10-10,50,42,32,43,38,32,96,87,69,30.17,30.04,11,1,13,0.00
2014-10-11,50,38,28,42,34,26,96,89,55,30.20,30.13,9,1,9,0.00
2014-10-12,59,39,27,40,32,26,96,80,29,30.37,30.20,7,1,8,0.00
2014-10-13,64,43,21,53,39,18,97,85,61,30.33,30.25,11,1,12,0.00
2014-10-14,74,63,46,60,56,45,98,79,55,30.27,30.15,20,4,25,0.01
2014-10-15,74,69,66,63,60,58,87,73,63,30.17,30.04,23,6,26,0.01
2014-10-16,70,64,52,66,61,52,99,92,71,30.04,29.76,16,2,21,0.24
2014-10-17,62,54,48,53,51,47,97,89,61,29.76,29.70,16,2,17,0.00
2014-10-18,57,50,38,53,48,37,97,93,80,29.80,29.63,11,2,12,0.28
2014-10-19,38,34,26,37,32,24,95,90,78,30.03,29.80,11,2,14,0.04
2014-10-20,46,35,23,42,32,21,96,89,70,30.03,29.97,13,1,13,0.00
2014-10-21,44,42,39,43,41,38,96,96,96,30.17,29.97,6,1,8,0.25
2014-10-22,45,42,40,44,41,39,96,94,84,30.27,30.15,12,2,16,0.02
2014-10-23,43,41,39,41,40,38,96,95,86,30.15,29.95,14,2,17,0.22
2014-10-24,45,41,34,44,40,33,96,96,95,29.96,29.91,9,1,11,0.07
2014-10-25,44,32,26,43,31,24,96,95,94,29.91,29.81,2,0,3,0.01
2014-10-26,47,41,39,45,40,38,97,96,91,29.82,29.55,9,1,12,0.63
2014-10-27,39,36,28,38,35,26,96,95,94,30.05,29.82,9,1,14,0.03
2014-10-28,64,46,30,61,44,29,97,95,74,30.06,29.93,13,1,14,0.09
2014-10-29,57,48,32,56,44,31,97,90,70,29.96,29.91,13,1,16,0.04
2014-10-30,44,39,34,41,37,33,96,92,78,30.06,29.93,6,1,9,0.06
2014-10-31,47,35,24,36,30,23,95,84,54,30.09,30.03,7,1,10,0.00
2014-11-1,39,32,28,33,30,26,95,90,70,30.07,30.02,11,2,14,0.00
2014-11-2,38,31,26,29,22,14,93,70,44,30.08,29.98,16,3,22,0.01
2014-11-3,41,31,19,35,26,18,95,82,65,30.11,29.98,8,1,13,0.00
2014-11-4,58,46,27,45,35,26,96,68,31,30.12,29.98,16,2,21,0.00
2014-11-5,57,47,41,47,38,29,97,72,33,30.15,29.95,17,3,26,0.11
2014-11-6,43,36,29,38,34,28,96,89,71,30.14,29.72,9,1,9,0.10
2014-11-7,34,31,26,33,30,23,95,93,82,29.87,29.67,14,2,15,0.12
2014-11-8,37,31,24,32,25,21,89,78,64,29.94,29.80,15,2,18,0.00
2014-11-9,39,34,24,35,29,23,95,85,68,29.96,29.78,15,2,22,0.01
2014-11-10,45,37,28,39,33,26,96,85,69,30.17,29.94,14,1,16,0.01
2014-11-11,59,52,32,47,38,31,95,61,42,30.09,29.95,18,5,24,0.00
2014-11-12,56,43,32,51,39,24,97,84,72,30.08,29.89,22,4,22,0.04
2014-11-13,34,30,25,28,25,21,94,79,67,30.08,29.96,7,1,12,0.00
2014-11-14,28,23,15,24,21,14,94,88,69,30.11,29.93,11,1,16,0.00
2014-11-15,30,22,14,24,16,11,93,76,55,30.25,30.11,12,2,14,0.00
2014-11-16,33,30,26,26,23,21,94,75,61,30.22,30.03,13,3,16,0.00
2014-11-17,34,31,28,33,30,24,95,94,78,30.03,29.49,10,1,14,0.00
2014-11-18,32,20,15,31,14,8,95,77,55,29.72,29.50,21,4,27,0.01
2014-11-19,22,17,7,16,14,8,93,85,67,30.03,29.70,17,3,20,0.00
2014-11-20,28,21,14,23,17,11,93,84,59,29.84,29.72,16,4,27,0.00
2014-11-21,20,14,6,16,11,4,93,84,60,30.33,29.85,13,2,16,0.00
2014-11-22,40,29,7,39,21,8,96,75,29,30.30,29.97,16,4,21,0.17
2014-11-23,45,39,33,44,38,32,96,96,94,30.14,29.98,7,1,12,0.14
2014-11-24,63,54,39,55,50,35,97,86,68,29.99,29.54,24,6,30,0.90
2014-11-25,48,39,31,47,32,26,95,75,60,30.17,29.70,20,4,23,0.01
2014-11-26,32,27,23,26,24,21,94,88,72,30.23,29.96,12,2,16,0.00
2014-11-27,26,23,21,24,21,18,93,92,84,30.03,29.94,9,1,11,0.00
2014-11-28,21,17,5,18,15,8,93,90,72,30.16,30.00,9,1,17,0.00
2014-11-29,30,16,0,26,14,0,93,84,67,30.21,29.99,17,1,22,0.02
2014-11-30,49,40,29,47,36,23,97,88,76,30.01,29.94,21,3,24,0.36
2014-12-1,51,35,20,50,33,16,97,93,77,30.52,29.95,13,2,20,0.03
2014-12-2,32,18,3,29,14,4,94,80,60,30.63,30.21,17,3,25,0.00
2014-12-3,40,34,27,39,33,24,96,92,79,30.22,29.87,20,4,31,0.10
2014-12-4,28,18,0,24,15,0,93,83,66,30.51,30.05,19,2,22,0.00
2014-12-5,35,18,-1,32,16,0,93,85,61,30.54,30.31,14,2,18,0.05
2014-12-6,37,32,25,35,31,24,95,94,86,30.41,30.21,16,1,18,0.01
2014-12-7,25,13,-2,24,10,0,94,82,51,30.69,30.40,8,2,12,0.00
2014-12-8,32,14,-2,24,10,0,93,78,36,30.66,30.36,12,1,14,0.01
2014-12-9,34,28,20,33,27,18,95,94,93,30.37,29.91,6,1,7,0.01
2014-12-10,30,27,25,29,26,24,94,94,94,29.91,29.57,0,0,0,0.00
2014-12-11,27,25,22,26,23,21,94,93,93,29.81,29.55,0,0,0,0.00
2014-12-12,24,21,19,23,19,18,93,93,93,30.01,29.81,0,0,0,0.00
2014-12-13,24,22,19,23,20,18,93,93,93,30.00,29.90,0,0,0,0.00
2014-12-14,31,28,24,29,26,23,94,94,93,30.01,29.89,0,0,0,0.01
2014-12-15,30,27,24,29,25,23,94,94,93,30.12,30.01,0,0,0,0.00
2014-12-16,37,28,18,36,26,16,95,94,93,30.08,29.88,6,0,9,0.16
2014-12-17,38,33,32,37,32,31,95,95,95,29.88,29.80,6,1,7,0.62
2014-12-18,32,26,20,29,24,18,95,94,93,29.96,29.80,9,1,12,0.00
2014-12-19,20,18,11,18,16,8,93,93,92,30.18,29.95,6,1,7,0.00
2014-12-20,29,11,-2,24,10,0,93,90,78,30.27,30.18,4,0,6,0.05
2014-12-21,24,13,-1,23,12,0,93,92,89,30.34,30.24,3,0,6,0.00
2014-12-22,35,17,-1,32,16,0,94,92,81,30.34,30.19,5,1,7,0.03
2014-12-23,41,32,22,40,30,21,96,95,93,30.20,30.09,4,0,6,0.27
2014-12-24,54,42,34,53,41,33,97,96,91,30.10,29.51,20,2,26,1.03
2014-12-25,54,39,34,53,37,28,97,89,76,30.00,29.44,22,5,39,0.26
2014-12-26,40,34,27,32,30,26,95,86,70,30.19,30.00,17,2,23,0.00
2014-12-27,45,38,33,40,35,31,96,89,73,30.21,29.91,13,1,16,0.01
2014-12-28,46,34,23,41,32,21,96,89,74,30.02,29.80,13,3,18,0.15
2014-12-29,27,19,7,23,13,4,93,75,51,30.21,29.99,11,2,14,0.00
2014-12-30,15,4,-6,8,0,-6,92,76,38,30.32,30.19,9,1,11,0.00
2014-12-31,15,10,1,11,7,4,92,81,59,30.19,29.89,16,2,26,0.00
2015-1-1,22,18,12,21,13,11,93,80,60,29.89,29.76,19,4,21,0.00
2015-1-2,24,16,-4,21,14,0,93,89,78,30.40,29.81,14,2,17,0.00